Terminal Aerodrome Forecast
Issued by NWS Jackson, MS

Home | Current Version | Previous Version | Text Only | Print | Product List | Glossary On
Versions: 1 2 3 4 5 6 7 8 9 10 11 12 13 14 15 16 17
482
FTUS44 KJAN 192354 RRA
TAFHBG
TAF
KHBG 192354Z 2000/2024 20010KT 6SM -SHRA BR SCT015 OVC050
     FM200500 20005KT 3SM BR BKN015 BKN250
     FM200700 20004KT 2SM BR BKN008 BKN250
     FM201200 22005KT 1SM BR BKN003 BKN250
     FM201500 22006KT 2SM BR BKN015 BKN250
     FM201700 22007KT P6SM BKN250=

USA.gov is the U.S. government's official web portal to all federal, state and local government web resources and services.